Time;durP1;ratioP1;P1;durP2;ratioP2;P2;SDS_P1;SDS_P2;PMS_P1;PMS_P2;Temp;Humidity;BMP_temperature;BMP_pressure;BME280_temperature;BME280_humidity;BME280_pressure;Samples;Min_cycle;Max_cycle;Signal;HPM_P1;HPM_P2
2023/03/01 00:01:58;;;;;;;5.05;2.10;;;;;;;;;;6151842;23;20457;-85
2023/03/01 00:04:32;;;;;;;5.53;2.03;;;;;;;;;;6127581;23;20390;-85
2023/03/01 00:07:00;;;;;;;5.03;2.10;;;;;;;;;;6127661;23;20390;-84
2023/03/01 00:09:33;;;;;;;4.20;2.00;;;;;;;;;;6164196;23;20772;-85
2023/03/01 00:12:00;;;;;;;4.72;2.00;;;;;;;;;;6127770;23;20382;-85
2023/03/01 00:14:33;;;;;;;4.77;2.00;;;;;;;;;;6126720;23;20489;-85
2023/03/01 00:17:01;;;;;;;5.10;2.00;;;;;;;;;;6151298;23;20379;-86
2023/03/01 00:19:36;;;;;;;5.63;1.92;;;;;;;;;;6127892;23;20708;-85
2023/03/01 00:22:03;;;;;;;5.55;2.08;;;;;;;;;;6127311;23;20398;-84
2023/03/01 00:24:31;;;;;;;5.45;2.00;;;;;;;;;;6154215;23;20367;-84
2023/03/01 00:27:04;;;;;;;5.25;2.10;;;;;;;;;;6151075;23;20443;-85
2023/03/01 00:29:32;;;;;;;4.88;2.20;;;;;;;;;;6127557;23;20387;-84
2023/03/01 00:32:00;;;;;;;4.90;1.88;;;;;;;;;;6127874;23;20375;-84
2023/03/01 00:34:28;;;;;;;5.73;2.30;;;;;;;;;;6127203;23;20387;-84
2023/03/01 00:37:05;;;;;;;7.60;2.80;;;;;;;;;;6151582;23;20383;-84
2023/03/01 00:39:37;;;;;;;7.82;2.40;;;;;;;;;;6127617;23;20389;-84
2023/03/01 00:42:05;;;;;;;4.78;2.20;;;;;;;;;;6154090;23;20379;-84
2023/03/01 00:44:38;;;;;;;5.72;2.00;;;;;;;;;;6163280;23;20382;-84
2023/03/01 00:47:11;;;;;;;4.97;2.20;;;;;;;;;;6151521;23;20864;-85
2023/03/01 00:49:39;;;;;;;4.72;2.10;;;;;;;;;;6127640;23;20378;-84
2023/03/01 00:52:08;;;;;;;4.70;2.13;;;;;;;;;;6126825;23;20379;-84
2023/03/01 00:54:41;;;;;;;4.72;2.30;;;;;;;;;;6151582;23;20390;-84
2023/03/01 00:57:14;;;;;;;7.38;2.10;;;;;;;;;;6126847;23;20393;-84
2023/03/01 00:59:46;;;;;;;6.25;2.50;;;;;;;;;;6163987;23;20367;-84
2023/03/01 01:02:14;;;;;;;4.93;2.45;;;;;;;;;;6154048;23;20379;-84
2023/03/01 01:04:48;;;;;;;6.35;2.50;;;;;;;;;;6127196;23;20387;-85
2023/03/01 01:07:22;;;;;;;6.20;2.47;;;;;;;;;;6127829;23;20390;-84
2023/03/01 01:09:50;;;;;;;6.57;2.80;;;;;;;;;;6126889;23;20847;-84
2023/03/01 01:12:18;;;;;;;6.32;2.80;;;;;;;;;;6154049;23;20661;-84
2023/03/01 01:14:50;;;;;;;6.55;2.80;;;;;;;;;;6150795;23;20379;-85
2023/03/01 01:17:23;;;;;;;6.97;3.13;;;;;;;;;;6127077;23;20383;-84
2023/03/01 01:19:56;;;;;;;7.38;3.20;;;;;;;;;;6151143;23;20383;-84
2023/03/01 01:22:25;;;;;;;7.30;3.20;;;;;;;;;;6153902;23;20374;-84
2023/03/01 01:24:58;;;;;;;7.22;3.42;;;;;;;;;;6127136;23;20393;-86
2023/03/01 01:27:31;;;;;;;7.07;3.55;;;;;;;;;;6163466;23;20390;-85
2023/03/01 01:29:59;;;;;;;7.35;3.58;;;;;;;;;;6127655;23;20704;-84
2023/03/01 01:32:27;;;;;;;9.10;3.80;;;;;;;;;;6127545;23;20397;-84
2023/03/01 01:34:54;;;;;;;8.00;3.65;;;;;;;;;;6153998;23;20824;-85
2023/03/01 01:37:31;;;;;;;7.68;3.60;;;;;;;;;;6126881;23;20391;-84
2023/03/01 01:39:59;;;;;;;7.63;3.83;;;;;;;;;;6127772;23;20387;-84
2023/03/01 01:42:32;;;;;;;8.70;3.90;;;;;;;;;;6151205;23;20394;-85
2023/03/01 01:45:18;;;;;;;8.00;3.90;;;;;;;;;;6126876;23;20836;-84
2023/03/01 01:47:48;;;;;;;8.65;4.40;;;;;;;;;;6127250;23;20378;-85
2023/03/01 01:50:17;;;;;;;9.10;4.28;;;;;;;;;;6126714;23;20378;-84
2023/03/01 01:52:46;;;;;;;9.07;3.88;;;;;;;;;;6127093;23;20393;-84
2023/03/01 01:55:16;;;;;;;10.10;4.22;;;;;;;;;;6126355;23;20376;-85
2023/03/01 01:57:50;;;;;;;8.75;4.28;;;;;;;;;;6151315;23;20375;-84
2023/03/01 02:00:24;;;;;;;10.57;4.33;;;;;;;;;;6127268;23;20412;-84
2023/03/01 02:02:55;;;;;;;10.93;4.67;;;;;;;;;;6151570;23;20387;-85
2023/03/01 02:05:26;;;;;;;9.93;4.53;;;;;;;;;;6153243;23;20363;-85
2023/03/01 02:08:01;;;;;;;10.75;4.60;;;;;;;;;;6162949;23;20386;-85
2023/03/01 02:10:34;;;;;;;10.40;5.10;;;;;;;;;;6151475;23;20475;-84
2023/03/01 02:13:07;;;;;;;11.73;5.53;;;;;;;;;;6151035;23;20386;-84
2023/03/01 02:15:35;;;;;;;17.20;6.72;;;;;;;;;;6126205;23;20378;-86
2023/03/01 02:18:04;;;;;;;14.68;6.30;;;;;;;;;;6126545;23;20387;-84
2023/03/01 02:20:40;;;;;;;12.60;6.03;;;;;;;;;;6150849;23;20860;-84
2023/03/01 02:23:15;;;;;;;12.90;6.28;;;;;;;;;;6127412;23;20398;-85
2023/03/01 02:25:47;;;;;;;13.75;6.38;;;;;;;;;;6151612;23;20374;-85
2023/03/01 02:28:23;;;;;;;12.73;5.70;;;;;;;;;;6125957;23;20690;-84
2023/03/01 02:33:42;;;;;;;14.07;6.13;;;;;;;;;;6163160;23;20362;-85
2023/03/01 02:36:16;;;;;;;13.15;6.18;;;;;;;;;;6163483;23;20379;-84
2023/03/01 02:38:44;;;;;;;13.77;6.43;;;;;;;;;;6125985;23;20390;-85
2023/03/01 02:41:14;;;;;;;12.53;6.23;;;;;;;;;;6126986;23;20383;-84
2023/03/01 02:43:48;;;;;;;13.07;6.65;;;;;;;;;;6126575;23;20382;-85
2023/03/01 02:46:17;;;;;;;13.40;6.28;;;;;;;;;;6126400;23;20383;-84
2023/03/01 02:48:51;;;;;;;12.05;6.28;;;;;;;;;;6127193;23;20382;-86
2023/03/01 02:51:25;;;;;;;17.30;7.97;;;;;;;;;;6126609;23;20391;-84
2023/03/01 02:54:05;;;;;;;14.55;7.43;;;;;;;;;;6127204;23;20379;-84
2023/03/01 02:56:33;;;;;;;14.77;8.38;;;;;;;;;;6126372;23;20443;-84
2023/03/01 02:59:03;;;;;;;16.55;8.25;;;;;;;;;;6127778;23;20383;-85
2023/03/01 03:01:36;;;;;;;14.52;7.70;;;;;;;;;;6128570;23;20387;-85
2023/03/01 03:04:10;;;;;;;15.75;7.80;;;;;;;;;;6129193;23;20383;-84
2023/03/01 03:06:44;;;;;;;17.10;8.93;;;;;;;;;;6152379;23;20367;-85
2023/03/01 03:09:12;;;;;;;17.10;9.38;;;;;;;;;;6127749;23;20390;-85
2023/03/01 03:11:46;;;;;;;19.27;10.18;;;;;;;;;;6164957;23;20367;-85
2023/03/01 03:14:16;;;;;;;19.45;10.30;;;;;;;;;;6151583;23;20378;-85
2023/03/01 03:16:47;;;;;;;18.27;9.97;;;;;;;;;;6152546;23;20396;-84
2023/03/01 03:19:16;;;;;;;19.60;9.98;;;;;;;;;;6128044;23;20383;-86
2023/03/01 03:21:49;;;;;;;16.70;9.23;;;;;;;;;;6152809;23;20379;-84
2023/03/01 03:24:18;;;;;;;16.77;8.55;;;;;;;;;;6154674;23;20847;-85
2023/03/01 03:26:50;;;;;;;19.25;9.13;;;;;;;;;;6164494;23;20394;-85
2023/03/01 03:29:19;;;;;;;17.83;8.82;;;;;;;;;;6128392;23;20708;-84
2023/03/01 03:31:52;;;;;;;14.63;7.30;;;;;;;;;;6128034;23;20394;-84
2023/03/01 03:34:25;;;;;;;15.95;7.28;;;;;;;;;;6152020;23;20886;-85
2023/03/01 03:36:59;;;;;;;14.57;6.40;;;;;;;;;;6152334;23;20387;-84
2023/03/01 03:39:27;;;;;;;11.88;6.90;;;;;;;;;;6127394;23;20387;-85
2023/03/01 03:41:55;;;;;;;14.43;6.65;;;;;;;;;;6154866;23;20371;-85
2023/03/01 03:44:24;;;;;;;12.65;6.38;;;;;;;;;;6154611;23;20380;-84
2023/03/01 03:46:57;;;;;;;11.73;6.40;;;;;;;;;;6152255;23;20383;-85
2023/03/01 03:49:25;;;;;;;14.65;6.85;;;;;;;;;;6154200;23;20363;-85
2023/03/01 03:51:57;;;;;;;12.23;6.27;;;;;;;;;;6128363;23;20469;-84
2023/03/01 03:54:30;;;;;;;14.30;6.97;;;;;;;;;;6127825;23;20389;-84
2023/03/01 03:56:58;;;;;;;14.05;6.70;;;;;;;;;;6128032;23;20777;-84
2023/03/01 03:59:32;;;;;;;14.18;6.60;;;;;;;;;;6152399;23;20402;-84
2023/03/01 04:02:00;;;;;;;13.75;6.80;;;;;;;;;;6128438;23;20722;-85
2023/03/01 04:04:33;;;;;;;13.32;6.25;;;;;;;;;;6126716;23;20875;-85
2023/03/01 04:07:00;;;;;;;12.38;6.82;;;;;;;;;;6127394;23;20379;-85
2023/03/01 04:09:33;;;;;;;13.80;6.72;;;;;;;;;;6164300;23;20378;-85
2023/03/01 04:12:06;;;;;;;12.82;6.65;;;;;;;;;;6152399;23;20387;-86
2023/03/01 04:14:40;;;;;;;14.07;6.90;;;;;;;;;;6127403;23;20406;-85
2023/03/01 04:17:08;;;;;;;14.45;6.95;;;;;;;;;;6151307;23;20386;-85
2023/03/01 04:19:43;;;;;;;13.60;7.30;;;;;;;;;;6152093;23;20418;-85
2023/03/01 04:22:17;;;;;;;15.02;7.43;;;;;;;;;;6164058;23;20379;-85
2023/03/01 04:24:45;;;;;;;13.02;7.03;;;;;;;;;;6151942;23;20387;-85
2023/03/01 04:27:17;;;;;;;19.95;6.97;;;;;;;;;;6163737;23;20383;-85
2023/03/01 04:29:53;;;;;;;13.55;6.95;;;;;;;;;;6127757;23;20379;-85
2023/03/01 04:32:20;;;;;;;14.20;6.78;;;;;;;;;;6154050;23;20374;-85
2023/03/01 04:34:53;;;;;;;12.80;6.50;;;;;;;;;;6127660;23;20398;-84
2023/03/01 04:37:26;;;;;;;12.25;6.20;;;;;;;;;;6128467;23;20386;-85
2023/03/01 04:39:59;;;;;;;13.18;7.00;;;;;;;;;;6152175;23;20405;-85
2023/03/01 04:42:27;;;;;;;12.00;6.50;;;;;;;;;;6127656;23;20383;-85
2023/03/01 04:44:56;;;;;;;14.48;7.35;;;;;;;;;;6153667;23;20829;-86
2023/03/01 04:47:24;;;;;;;14.13;6.93;;;;;;;;;;6127594;23;20383;-85
2023/03/01 04:49:52;;;;;;;13.70;6.43;;;;;;;;;;6127813;23;20386;-85
2023/03/01 04:52:19;;;;;;;15.85;6.50;;;;;;;;;;6127598;23;20390;-85
2023/03/01 04:54:47;;;;;;;12.43;6.40;;;;;;;;;;6126531;23;20379;-85
2023/03/01 04:57:20;;;;;;;12.73;6.38;;;;;;;;;;6151601;23;20871;-85
2023/03/01 04:59:53;;;;;;;13.85;6.22;;;;;;;;;;6127730;23;20375;-86
2023/03/01 05:02:23;;;;;;;13.30;6.22;;;;;;;;;;6154040;23;20374;-85
2023/03/01 05:04:57;;;;;;;12.25;5.93;;;;;;;;;;6127165;23;20855;-86
2023/03/01 05:07:30;;;;;;;12.55;6.00;;;;;;;;;;6151848;23;20867;-86
2023/03/01 05:09:57;;;;;;;13.25;6.47;;;;;;;;;;6127306;23;20387;-85
2023/03/01 05:12:30;;;;;;;15.40;5.97;;;;;;;;;;6151106;23;20686;-86
2023/03/01 05:15:06;;;;;;;14.32;6.55;;;;;;;;;;6127710;23;20391;-85
2023/03/01 05:17:35;;;;;;;18.75;6.53;;;;;;;;;;6127022;23;20389;-86
2023/03/01 05:20:08;;;;;;;14.32;6.32;;;;;;;;;;6126513;23;20375;-85
2023/03/01 05:22:41;;;;;;;14.30;6.75;;;;;;;;;;6163682;23;20386;-86
2023/03/01 05:25:09;;;;;;;14.48;7.20;;;;;;;;;;6126380;23;20391;-85
2023/03/01 05:27:37;;;;;;;14.68;7.40;;;;;;;;;;6151600;23;20383;-85
2023/03/01 05:30:13;;;;;;;19.55;7.40;;;;;;;;;;6127568;23;20374;-85
2023/03/01 05:32:44;;;;;;;16.17;7.38;;;;;;;;;;6163345;23;20363;-85
2023/03/01 05:35:17;;;;;;;19.40;7.70;;;;;;;;;;6127074;23;20379;-85
2023/03/01 05:37:47;;;;;;;15.18;7.28;;;;;;;;;;6153120;23;20366;-85
2023/03/01 05:40:16;;;;;;;16.98;7.43;;;;;;;;;;6153369;23;20374;-87
2023/03/01 05:42:50;;;;;;;15.90;7.55;;;;;;;;;;6163470;23;20385;-85
2023/03/01 05:45:23;;;;;;;15.45;6.78;;;;;;;;;;6163334;23;20871;-85
2023/03/01 05:47:54;;;;;;;15.50;7.53;;;;;;;;;;6151442;23;20386;-86
2023/03/01 05:50:25;;;;;;;15.07;7.63;;;;;;;;;;6127063;23;20398;-86
2023/03/01 05:52:59;;;;;;;16.67;7.97;;;;;;;;;;6126646;23;20374;-85
2023/03/01 05:55:32;;;;;;;17.35;7.88;;;;;;;;;;6163565;23;20382;-86
2023/03/01 05:58:06;;;;;;;16.00;7.95;;;;;;;;;;6151002;23;20890;-85
2023/03/01 06:00:34;;;;;;;15.98;7.93;;;;;;;;;;6151171;23;20712;-86
2023/03/01 06:03:03;;;;;;;15.43;7.70;;;;;;;;;;6123773;23;20391;-86
2023/03/01 06:05:36;;;;;;;17.83;8.50;;;;;;;;;;6126056;23;20481;-85
2023/03/01 06:08:10;;;;;;;17.48;8.50;;;;;;;;;;6126224;23;20410;-85
2023/03/01 06:10:43;;;;;;;17.15;8.60;;;;;;;;;;6152850;23;20375;-85
2023/03/01 06:13:16;;;;;;;16.70;7.90;;;;;;;;;;6163012;23;20379;-85
2023/03/01 06:15:48;;;;;;;16.35;8.30;;;;;;;;;;6126540;23;20390;-85
2023/03/01 06:18:23;;;;;;;18.60;8.30;;;;;;;;;;6162834;23;21026;-85
2023/03/01 06:20:53;;;;;;;16.67;8.20;;;;;;;;;;6126102;23;20383;-86
2023/03/01 06:23:26;;;;;;;18.27;9.13;;;;;;;;;;6126909;23;20375;-86
2023/03/01 06:25:54;;;;;;;20.70;9.65;;;;;;;;;;6126171;23;20402;-85
2023/03/01 06:28:22;;;;;;;19.50;9.65;;;;;;;;;;6126744;23;20379;-85
2023/03/01 06:30:55;;;;;;;19.73;9.10;;;;;;;;;;6126680;23;20398;-85
2023/03/01 06:33:29;;;;;;;15.43;8.05;;;;;;;;;;6128229;23;20379;-86
2023/03/01 06:35:57;;;;;;;13.55;6.13;;;;;;;;;;6128242;23;20803;-85
2023/03/01 06:38:30;;;;;;;12.85;6.68;;;;;;;;;;6152101;23;20387;-85
2023/03/01 06:40:57;;;;;;;14.98;6.90;;;;;;;;;;6128804;23;20383;-85
2023/03/01 06:43:25;;;;;;;13.65;6.25;;;;;;;;;;6128748;23;20398;-85
2023/03/01 06:45:58;;;;;;;12.77;6.20;;;;;;;;;;6128486;23;20433;-85
2023/03/01 06:48:26;;;;;;;11.53;5.70;;;;;;;;;;6127714;23;20952;-86
2023/03/01 06:50:58;;;;;;;13.20;6.53;;;;;;;;;;6128534;23;20375;-86
2023/03/01 06:53:26;;;;;;;14.73;6.63;;;;;;;;;;6127664;23;20386;-84
2023/03/01 06:55:57;;;;;;;14.68;6.70;;;;;;;;;;6153023;23;20385;-85
2023/03/01 06:58:30;;;;;;;15.35;6.80;;;;;;;;;;6152719;23;20383;-85
2023/03/01 07:00:58;;;;;;;13.55;6.93;;;;;;;;;;6127842;23;20387;-85
2023/03/01 07:03:30;;;;;;;17.00;7.55;;;;;;;;;;6152196;23;20911;-85
2023/03/01 07:05:58;;;;;;;18.02;8.63;;;;;;;;;;6128436;23;20404;-85
2023/03/01 07:08:26;;;;;;;17.33;7.88;;;;;;;;;;6128176;23;20876;-86
2023/03/01 07:11:01;;;;;;;17.80;8.90;;;;;;;;;;6128506;23;20386;-85
2023/03/01 07:13:29;;;;;;;17.65;8.85;;;;;;;;;;6155068;23;20836;-85
2023/03/01 07:16:02;;;;;;;22.15;10.18;;;;;;;;;;6129462;23;20844;-86
2023/03/01 07:18:30;;;;;;;19.25;10.18;;;;;;;;;;6155186;23;20363;-84
2023/03/01 07:21:07;;;;;;;20.95;10.30;;;;;;;;;;6155366;23;20398;-85
2023/03/01 07:23:40;;;;;;;22.73;10.63;;;;;;;;;;6153054;23;20851;-83
2023/03/01 07:26:08;;;;;;;22.17;10.50;;;;;;;;;;6153553;23;20383;-85
2023/03/01 07:28:38;;;;;;;20.20;10.52;;;;;;;;;;6127948;23;20402;-85
2023/03/01 07:31:11;;;;;;;23.33;11.18;;;;;;;;;;6152730;23;20391;-84
2023/03/01 07:33:39;;;;;;;26.58;12.52;;;;;;;;;;6155124;23;20370;-84
2023/03/01 07:36:13;;;;;;;25.58;11.93;;;;;;;;;;6152565;23;20401;-86
2023/03/01 07:38:45;;;;;;;24.33;13.60;;;;;;;;;;6127328;23;20391;-85
2023/03/01 07:41:14;;;;;;;23.67;11.20;;;;;;;;;;6128247;23;20693;-85
2023/03/01 07:43:41;;;;;;;23.10;12.00;;;;;;;;;;6152476;23;20375;-84
2023/03/01 07:46:14;;;;;;;21.25;11.43;;;;;;;;;;6124749;23;20391;-85
2023/03/01 07:48:42;;;;;;;26.48;12.23;;;;;;;;;;6152813;23;20368;-84
2023/03/01 07:51:16;;;;;;;25.63;11.93;;;;;;;;;;6128285;23;20868;-84
2023/03/01 07:53:46;;;;;;;22.45;12.18;;;;;;;;;;6151253;23;20387;-84
2023/03/01 07:56:20;;;;;;;24.38;14.38;;;;;;;;;;6152356;23;20383;-84
2023/03/01 07:58:48;;;;;;;29.30;15.20;;;;;;;;;;6153366;23;20363;-84
2023/03/01 08:01:21;;;;;;;29.13;15.73;;;;;;;;;;6150026;23;20391;-84
2023/03/01 08:03:49;;;;;;;28.02;15.35;;;;;;;;;;6127075;23;20389;-84
2023/03/01 08:06:23;;;;;;;31.17;16.48;;;;;;;;;;6127235;23;20391;-83
2023/03/01 08:08:51;;;;;;;31.85;17.40;;;;;;;;;;6152919;23;20413;-85
2023/03/01 08:11:24;;;;;;;25.67;13.20;;;;;;;;;;6114539;23;20386;-84
2023/03/01 08:13:52;;;;;;;26.27;12.80;;;;;;;;;;6148019;23;20697;-84
2023/03/01 08:16:24;;;;;;;25.70;13.13;;;;;;;;;;6110127;23;20807;-84
2023/03/01 08:19:01;;;;;;;30.83;12.77;;;;;;;;;;6143200;23;20999;-85
2023/03/01 08:21:30;;;;;;;24.30;11.88;;;;;;;;;;6135737;23;20386;-86
2023/03/01 08:23:58;;;;;;;33.22;16.98;;;;;;;;;;6139137;23;20371;-87
2023/03/01 08:26:25;;;;;;;37.22;19.17;;;;;;;;;;6116046;23;20395;-85
2023/03/01 08:28:53;;;;;;;35.88;17.48;;;;;;;;;;6110769;23;20860;-85
2023/03/01 08:31:22;;;;;;;27.75;13.75;;;;;;;;;;6135041;23;20371;-85
2023/03/01 08:33:54;;;;;;;28.40;12.80;;;;;;;;;;6137618;23;20378;-84
2023/03/01 08:36:23;;;;;;;35.13;15.40;;;;;;;;;;6110930;23;20414;-86
2023/03/01 08:38:57;;;;;;;23.60;12.70;;;;;;;;;;6149873;23;20390;-85
2023/03/01 08:41:29;;;;;;;24.67;13.55;;;;;;;;;;6148708;23;20398;-85
2023/03/01 08:44:02;;;;;;;23.60;13.45;;;;;;;;;;6134539;23;20386;-87
2023/03/01 08:46:36;;;;;;;29.55;14.82;;;;;;;;;;6135559;23;20398;-85
2023/03/01 08:49:04;;;;;;;26.20;13.43;;;;;;;;;;6112421;23;20387;-86
2023/03/01 08:51:37;;;;;;;25.75;14.32;;;;;;;;;;6134040;23;21114;-89
2023/03/01 08:54:12;;;;;;;24.65;12.95;;;;;;;;;;6147790;23;20394;-85
2023/03/01 08:56:40;;;;;;;21.63;12.20;;;;;;;;;;6134511;23;20370;-86
2023/03/01 08:59:14;;;;;;;24.20;12.68;;;;;;;;;;6147863;23;20383;-85
2023/03/01 09:01:47;;;;;;;23.15;12.80;;;;;;;;;;6136524;23;20708;-87
2023/03/01 09:04:15;;;;;;;24.13;12.48;;;;;;;;;;6136492;23;20836;-88
2023/03/01 09:06:48;;;;;;;25.38;12.43;;;;;;;;;;6111880;23;20391;-85
2023/03/01 09:09:18;;;;;;;24.35;12.93;;;;;;;;;;6110840;23;20392;-86
2023/03/01 09:11:46;;;;;;;23.73;12.35;;;;;;;;;;6135123;23;20395;-85
2023/03/01 09:14:14;;;;;;;26.70;12.40;;;;;;;;;;6142153;23;20367;-86
2023/03/01 09:16:47;;;;;;;24.00;12.55;;;;;;;;;;6113721;23;20385;-88
2023/03/01 09:19:15;;;;;;;29.67;12.85;;;;;;;;;;6110725;23;20413;-85
2023/03/01 09:21:52;;;;;;;25.27;12.85;;;;;;;;;;6117026;23;20744;-86
2023/03/01 09:24:26;;;;;;;25.92;13.18;;;;;;;;;;6147904;23;20945;-86
2023/03/01 09:26:59;;;;;;;23.98;12.75;;;;;;;;;;6135177;23;20379;-86
2023/03/01 09:29:32;;;;;;;23.38;12.98;;;;;;;;;;6111015;23;20398;-86
2023/03/01 09:32:05;;;;;;;24.60;13.45;;;;;;;;;;6138159;23;20389;-85
2023/03/01 09:35:00;;;;;;;22.65;12.88;;;;;;;;;;6114374;23;20387;-86
2023/03/01 09:37:25;;;;;;;25.58;13.38;;;;;;;;;;6109732;23;20807;-86
2023/03/01 09:39:54;;;;;;;25.23;13.50;;;;;;;;;;6136621;23;20371;-86
2023/03/01 09:42:22;;;;;;;22.23;13.15;;;;;;;;;;6134142;23;20398;-88
2023/03/01 09:44:57;;;;;;;26.27;14.70;;;;;;;;;;6109921;23;20398;-87
2023/03/01 09:47:31;;;;;;;26.40;12.98;;;;;;;;;;6149888;23;20382;-87
2023/03/01 09:50:07;;;;;;;24.00;14.02;;;;;;;;;;6138832;23;20447;-84
2023/03/01 09:52:39;;;;;;;25.63;13.43;;;;;;;;;;6138631;23;20435;-86
2023/03/01 09:55:12;;;;;;;25.58;13.45;;;;;;;;;;6146272;23;20371;-85
2023/03/01 09:57:44;;;;;;;23.42;12.65;;;;;;;;;;6139014;23;20708;-88
2023/03/01 10:00:19;;;;;;;25.38;13.23;;;;;;;;;;6138080;23;20390;-88
2023/03/01 10:02:53;;;;;;;24.77;13.10;;;;;;;;;;6110806;23;20721;-85
2023/03/01 10:05:32;;;;;;;23.60;12.98;;;;;;;;;;6141286;23;20877;-86
2023/03/01 10:08:26;;;;;;;22.65;12.95;;;;;;;;;;6136802;23;20402;-86
2023/03/01 10:10:55;;;;;;;23.77;12.73;;;;;;;;;;6140409;23;20395;-88
2023/03/01 10:13:30;;;;;;;22.45;12.88;;;;;;;;;;6149197;23;20378;-84
2023/03/01 10:16:01;;;;;;;19.90;10.57;;;;;;;;;;6112318;23;20386;-84
2023/03/01 10:18:36;;;;;;;20.48;10.15;;;;;;;;;;6146016;23;20406;-87
2023/03/01 10:21:10;;;;;;;19.77;10.57;;;;;;;;;;6141463;23;20367;-85
2023/03/01 10:23:43;;;;;;;23.00;11.05;;;;;;;;;;6147111;23;20887;-86
2023/03/01 10:26:40;;;;;;;20.42;10.25;;;;;;;;;;6137382;23;20394;-85
2023/03/01 10:29:09;;;;;;;19.17;10.20;;;;;;;;;;6138833;23;20398;-84
2023/03/01 10:31:42;;;;;;;17.90;10.65;;;;;;;;;;6138472;23;20383;-86
2023/03/01 10:34:17;;;;;;;18.38;9.88;;;;;;;;;;6148986;23;20882;-84
2023/03/01 10:36:51;;;;;;;16.08;9.35;;;;;;;;;;6155645;23;21118;-85
2023/03/01 10:39:24;;;;;;;16.98;9.05;;;;;;;;;;6117717;23;20898;-84
2023/03/01 10:42:03;;;;;;;14.73;8.35;;;;;;;;;;6138274;23;20390;-83
2023/03/01 10:44:39;;;;;;;17.40;9.38;;;;;;;;;;6114468;23;20387;-84
2023/03/01 10:47:14;;;;;;;15.63;9.43;;;;;;;;;;6113352;23;20393;-84
2023/03/01 10:50:04;;;;;;;14.45;8.38;;;;;;;;;;6133275;23;20387;-86
2023/03/01 10:52:38;;;;;;;18.48;8.50;;;;;;;;;;6108931;23;20397;-85
2023/03/01 10:55:24;;;;;;;16.13;9.70;;;;;;;;;;6116007;23;20390;-85
2023/03/01 10:58:06;;;;;;;17.38;9.35;;;;;;;;;;6135599;23;20387;-85
2023/03/01 11:00:47;;;;;;;16.92;8.90;;;;;;;;;;6134411;23;20974;-85
2023/03/01 11:03:21;;;;;;;18.80;9.70;;;;;;;;;;6136671;23;20387;-84
2023/03/01 11:05:57;;;;;;;17.25;10.00;;;;;;;;;;6133444;23;21275;-83
2023/03/01 11:08:39;;;;;;;16.25;8.73;;;;;;;;;;6133877;23;20387;-85
2023/03/01 11:11:22;;;;;;;15.32;8.70;;;;;;;;;;6137223;23;20393;-85
2023/03/01 11:13:56;;;;;;;20.42;9.98;;;;;;;;;;6110509;23;20562;-84
2023/03/01 11:16:32;;;;;;;16.30;8.70;;;;;;;;;;6107455;23;20409;-84
2023/03/01 11:19:15;;;;;;;16.67;8.70;;;;;;;;;;6150503;23;20367;-84
2023/03/01 11:21:45;;;;;;;15.93;8.60;;;;;;;;;;6108016;23;20390;-84
2023/03/01 11:24:14;;;;;;;17.80;8.95;;;;;;;;;;6107683;23;20405;-84
2023/03/01 11:26:43;;;;;;;17.25;9.40;;;;;;;;;;6142664;23;20367;-84
2023/03/01 11:29:22;;;;;;;17.03;8.70;;;;;;;;;;6112954;23;20482;-83
2023/03/01 11:31:50;;;;;;;16.92;9.50;;;;;;;;;;6148034;23;20367;-84
2023/03/01 11:34:29;;;;;;;17.38;9.63;;;;;;;;;;6120033;23;20386;-84
2023/03/01 11:36:59;;;;;;;15.55;8.50;;;;;;;;;;6145013;23;20373;-84
2023/03/01 11:39:35;;;;;;;14.75;8.88;;;;;;;;;;6151402;23;20379;-84
2023/03/01 11:42:07;;;;;;;15.90;8.07;;;;;;;;;;6137912;23;21054;-84
2023/03/01 11:44:37;;;;;;;12.60;6.55;;;;;;;;;;6111106;23;20387;-83
2023/03/01 11:47:16;;;;;;;12.70;6.60;;;;;;;;;;6109803;23;21038;-84
2023/03/01 11:49:54;;;;;;;13.43;6.72;;;;;;;;;;6109843;23;20390;-84
2023/03/01 11:52:26;;;;;;;13.60;6.65;;;;;;;;;;6139554;23;21095;-84
2023/03/01 11:55:00;;;;;;;12.70;7.10;;;;;;;;;;6110266;23;20393;-82
2023/03/01 11:57:44;;;;;;;13.25;6.45;;;;;;;;;;6112476;23;20395;-85
2023/03/01 12:00:33;;;;;;;10.07;5.10;;;;;;;;;;6133047;23;20387;-84
2023/03/01 12:03:20;;;;;;;11.63;5.78;;;;;;;;;;6110542;23;20387;-83
2023/03/01 12:06:03;;;;;;;13.80;6.05;;;;;;;;;;6110818;23;20402;-82
2023/03/01 12:08:35;;;;;;;12.80;6.00;;;;;;;;;;6136679;23;20387;-82
2023/03/01 12:11:07;;;;;;;11.85;5.85;;;;;;;;;;6133152;23;20864;-84
2023/03/01 12:13:48;;;;;;;11.27;5.30;;;;;;;;;;6105091;23;20387;-83
2023/03/01 12:16:26;;;;;;;9.65;4.78;;;;;;;;;;6104527;23;20410;-84
2023/03/01 12:19:16;;;;;;;10.95;5.72;;;;;;;;;;6134510;23;20372;-83
2023/03/01 12:21:59;;;;;;;13.43;6.93;;;;;;;;;;6145964;23;20767;-82
2023/03/01 12:24:42;;;;;;;16.85;7.22;;;;;;;;;;6105753;23;20391;-83
2023/03/01 12:27:30;;;;;;;13.87;6.33;;;;;;;;;;6106544;23;21095;-82
2023/03/01 12:30:04;;;;;;;13.38;6.40;;;;;;;;;;6073575;23;20676;-83
2023/03/01 12:32:41;;;;;;;10.77;5.20;;;;;;;;;;6147154;23;20371;-78
2023/03/01 12:35:36;;;;;;;11.07;5.30;;;;;;;;;;6142493;23;20375;-83
2023/03/01 12:38:14;;;;;;;10.88;5.45;;;;;;;;;;6141399;23;20366;-84
2023/03/01 12:40:47;;;;;;;10.45;4.88;;;;;;;;;;6109172;23;20379;-82
2023/03/01 12:43:27;;;;;;;13.20;5.82;;;;;;;;;;6141096;23;20409;-82
2023/03/01 12:46:05;;;;;;;10.77;4.72;;;;;;;;;;6144340;23;20374;-82
2023/03/01 12:48:43;;;;;;;10.52;5.43;;;;;;;;;;6147997;23;20379;-83
2023/03/01 12:51:20;;;;;;;9.80;5.13;;;;;;;;;;6109582;23;20739;-83
2023/03/01 12:53:54;;;;;;;11.80;5.93;;;;;;;;;;6145080;23;20899;-83
2023/03/01 12:56:22;;;;;;;10.50;4.95;;;;;;;;;;6106680;23;21166;-84
2023/03/01 12:59:00;;;;;;;9.38;4.63;;;;;;;;;;6144098;23;21062;-83
2023/03/01 13:01:38;;;;;;;7.97;4.28;;;;;;;;;;6107601;23;20394;-83
2023/03/01 13:04:17;;;;;;;10.55;5.53;;;;;;;;;;6148876;23;20748;-82
2023/03/01 13:06:56;;;;;;;9.55;4.68;;;;;;;;;;6132348;23;20403;-81
2023/03/01 13:09:30;;;;;;;9.47;4.77;;;;;;;;;;6104826;23;20390;-82
2023/03/01 13:12:02;;;;;;;10.25;4.70;;;;;;;;;;6143105;23;20383;-83
2023/03/01 13:14:36;;;;;;;8.48;4.13;;;;;;;;;;6145934;23;20379;-83
2023/03/01 13:17:04;;;;;;;8.85;3.90;;;;;;;;;;6132490;23;20471;-83
2023/03/01 13:19:41;;;;;;;7.63;3.72;;;;;;;;;;6129422;23;21267;-83
2023/03/01 13:22:23;;;;;;;8.02;3.80;;;;;;;;;;6103353;23;20382;-83
2023/03/01 13:25:01;;;;;;;7.90;3.15;;;;;;;;;;6127399;23;20387;-83
2023/03/01 13:27:34;;;;;;;6.00;2.30;;;;;;;;;;6132330;23;20422;-83
2023/03/01 13:30:31;;;;;;;6.20;2.50;;;;;;;;;;6132661;23;20386;-83
2023/03/01 13:33:19;;;;;;;8.15;3.15;;;;;;;;;;6144375;23;20374;-83
2023/03/01 13:35:53;;;;;;;7.72;3.00;;;;;;;;;;6128451;23;20907;-82
2023/03/01 13:38:45;;;;;;;7.10;3.20;;;;;;;;;;6130070;23;20711;-83
2023/03/01 13:41:38;;;;;;;10.07;3.47;;;;;;;;;;6103354;23;20414;-81
2023/03/01 13:44:21;;;;;;;7.72;3.50;;;;;;;;;;6137362;23;20713;-82
2023/03/01 13:46:50;;;;;;;7.60;3.50;;;;;;;;;;6143032;23;20367;-82
2023/03/01 13:49:24;;;;;;;7.78;3.50;;;;;;;;;;6130783;23;20380;-82
2023/03/01 13:51:57;;;;;;;8.35;3.47;;;;;;;;;;6136315;23;20386;-80
2023/03/01 13:54:31;;;;;;;8.20;3.30;;;;;;;;;;6130050;23;20391;-82
2023/03/01 13:57:04;;;;;;;7.82;3.20;;;;;;;;;;6143851;23;20390;-82
2023/03/01 13:59:33;;;;;;;6.47;2.78;;;;;;;;;;6134468;23;20366;-82
2023/03/01 14:02:01;;;;;;;9.38;3.55;;;;;;;;;;6131445;23;20840;-82
2023/03/01 14:04:35;;;;;;;9.35;3.78;;;;;;;;;;6110829;23;20390;-82
2023/03/01 14:07:12;;;;;;;7.13;3.30;;;;;;;;;;6104880;23;20387;-82
2023/03/01 14:09:41;;;;;;;7.63;3.20;;;;;;;;;;6108210;23;20387;-82
2023/03/01 14:12:27;;;;;;;7.18;3.38;;;;;;;;;;6122457;23;20390;-82
2023/03/01 14:15:03;;;;;;;6.77;3.03;;;;;;;;;;6135917;23;20398;-83
2023/03/01 14:17:44;;;;;;;6.20;3.00;;;;;;;;;;6142311;23;20847;-82
2023/03/01 14:20:15;;;;;;;8.02;3.47;;;;;;;;;;6136667;23;20359;-82
2023/03/01 14:22:48;;;;;;;7.13;3.28;;;;;;;;;;6135957;23;20848;-83
2023/03/01 14:25:23;;;;;;;7.20;3.50;;;;;;;;;;6141361;23;20382;-82
2023/03/01 14:28:02;;;;;;;6.73;3.10;;;;;;;;;;6134063;23;20464;-82
2023/03/01 14:30:33;;;;;;;10.85;3.65;;;;;;;;;;6141590;23;20911;-81
2023/03/01 14:33:07;;;;;;;7.47;3.35;;;;;;;;;;6142615;23;20382;-82
2023/03/01 14:35:36;;;;;;;9.05;3.70;;;;;;;;;;6130949;23;20441;-81
2023/03/01 14:38:21;;;;;;;7.85;3.33;;;;;;;;;;6108734;23;20387;-81
2023/03/01 14:40:56;;;;;;;6.97;3.22;;;;;;;;;;6143972;23;20385;-81
2023/03/01 14:43:25;;;;;;;8.07;3.75;;;;;;;;;;6110710;23;20379;-80
2023/03/01 14:45:54;;;;;;;8.32;2.92;;;;;;;;;;6133508;23;20696;-81
2023/03/01 14:48:28;;;;;;;6.55;2.90;;;;;;;;;;6140500;23;20375;-83
2023/03/01 14:50:56;;;;;;;6.78;3.08;;;;;;;;;;6106863;23;20391;-84
2023/03/01 14:53:26;;;;;;;5.88;2.70;;;;;;;;;;6107459;23;20387;-83
2023/03/01 14:55:54;;;;;;;5.70;2.90;;;;;;;;;;6130594;23;20387;-83
2023/03/01 14:58:23;;;;;;;6.60;2.80;;;;;;;;;;6105230;23;20385;-83
2023/03/01 15:00:59;;;;;;;6.13;2.80;;;;;;;;;;6132879;23;20382;-82
2023/03/01 15:03:33;;;;;;;7.78;2.70;;;;;;;;;;6133323;23;20390;-83
2023/03/01 15:06:07;;;;;;;5.47;2.30;;;;;;;;;;6110820;23;21304;-83
2023/03/01 15:08:43;;;;;;;4.97;2.45;;;;;;;;;;6137820;23;21323;-82